Time;durP1;ratioP1;P1;durP2;ratioP2;P2;SDS_P1;SDS_P2;PMS_P1;PMS_P2;Temp;Humidity;BMP_temperature;BMP_pressure;BME280_temperature;BME280_humidity;BME280_pressure;Samples;Min_cycle;Max_cycle;Signal;HPM_P1;HPM_P2
2022/01/19 00:00:09;;;;;;;18.15;8.18;;;-3.30;99.90;;;;;;4994669;28;20022;-75
2022/01/19 00:02:35;;;;;;;14.75;7.03;;;-3.20;99.90;;;;;;4994503;28;20398;-77
2022/01/19 00:05:01;;;;;;;20.45;9.60;;;-3.30;99.90;;;;;;4977137;28;20031;-76
2022/01/19 00:07:27;;;;;;;18.83;8.40;;;-3.30;99.90;;;;;;4994619;28;20053;-75
2022/01/19 00:09:52;;;;;;;18.80;6.85;;;-3.30;99.90;;;;;;4993213;28;20026;-76
2022/01/19 00:12:18;;;;;;;15.75;6.95;;;-3.30;99.90;;;;;;4994279;28;20023;-77
2022/01/19 00:14:43;;;;;;;11.63;6.05;;;-3.40;99.90;;;;;;4975923;28;20068;-75
2022/01/19 00:17:09;;;;;;;11.38;5.95;;;-3.40;99.90;;;;;;4994138;28;20107;-75
2022/01/19 00:19:35;;;;;;;10.07;6.05;;;-3.40;99.90;;;;;;4994385;28;20050;-75
2022/01/19 00:22:00;;;;;;;11.73;5.15;;;-3.50;99.90;;;;;;4993240;28;20037;-75
2022/01/19 00:24:26;;;;;;;13.18;5.50;;;-3.40;99.90;;;;;;4993244;28;20037;-75
2022/01/19 00:26:51;;;;;;;13.30;4.85;;;-3.50;99.90;;;;;;4977157;28;20030;-78
2022/01/19 00:29:17;;;;;;;9.43;5.45;;;-3.50;99.90;;;;;;4993167;28;20014;-76
2022/01/19 00:31:43;;;;;;;12.15;4.95;;;-3.50;99.90;;;;;;4993201;28;20030;-75
2022/01/19 00:34:08;;;;;;;13.00;5.75;;;-3.50;99.90;;;;;;4994277;28;20120;-77
2022/01/19 00:36:34;;;;;;;11.10;5.10;;;-3.60;99.90;;;;;;4994461;28;20034;-76
2022/01/19 00:39:00;;;;;;;14.65;7.15;;;-3.60;99.90;;;;;;4992912;28;20077;-76
2022/01/19 00:41:25;;;;;;;15.70;6.15;;;-3.60;99.90;;;;;;4992654;28;20038;-76
2022/01/19 00:43:51;;;;;;;11.07;5.85;;;-3.60;99.90;;;;;;4992896;28;20023;-75
2022/01/19 00:46:17;;;;;;;14.70;6.88;;;-3.60;99.90;;;;;;4994359;28;20482;-78
2022/01/19 00:48:42;;;;;;;12.05;5.82;;;-3.60;99.90;;;;;;4976801;28;20023;-76
2022/01/19 00:51:08;;;;;;;14.02;6.60;;;-3.60;99.90;;;;;;4993848;28;20019;-77
2022/01/19 00:53:34;;;;;;;13.23;6.97;;;-3.60;99.90;;;;;;4992514;28;20018;-78
2022/01/19 00:56:00;;;;;;;19.00;6.70;;;-3.60;99.90;;;;;;4993841;28;20030;-75
2022/01/19 00:58:25;;;;;;;13.35;6.55;;;-3.60;99.90;;;;;;4976005;28;20554;-75
2022/01/19 01:00:51;;;;;;;19.42;7.47;;;-3.60;99.90;;;;;;4975855;28;20042;-77
2022/01/19 01:03:17;;;;;;;19.60;7.20;;;-3.60;99.90;;;;;;4993406;28;20027;-76
2022/01/19 01:05:44;;;;;;;19.38;6.85;;;-3.50;99.90;;;;;;4993578;28;20030;-75
2022/01/19 01:08:10;;;;;;;18.27;6.90;;;-3.60;99.90;;;;;;4976157;28;20537;-77
2022/01/19 01:10:42;;;;;;;9.57;5.47;;;-3.60;99.90;;;;;;4993535;28;20061;-76
2022/01/19 01:18:25;;;;;;;13.75;5.75;;;-3.60;99.90;;;;;;4993287;28;20450;-76
2022/01/19 01:20:53;;;;;;;23.20;6.78;;;-3.60;99.90;;;;;;4991879;28;20406;-77
2022/01/19 01:23:24;;;;;;;14.60;5.95;;;-3.60;99.90;;;;;;4993260;28;20022;-77
2022/01/19 01:25:50;;;;;;;18.98;6.43;;;-3.60;99.90;;;;;;4992902;28;20026;-77
2022/01/19 01:28:16;;;;;;;16.15;5.95;;;-3.70;99.90;;;;;;4992417;28;20029;-78
2022/01/19 01:30:43;;;;;;;13.73;5.63;;;-3.80;99.90;;;;;;4991677;28;20028;-78
2022/01/19 01:33:09;;;;;;;12.38;5.15;;;-3.80;99.90;;;;;;4992827;28;20121;-75
2022/01/19 01:35:36;;;;;;;11.40;5.30;;;-3.80;99.90;;;;;;4993337;28;20466;-76
2022/01/19 01:38:02;;;;;;;11.75;5.07;;;-3.90;99.90;;;;;;4992690;28;20040;-75
2022/01/19 01:40:28;;;;;;;14.57;5.63;;;-3.90;99.90;;;;;;4992366;28;20064;-76
2022/01/19 01:42:55;;;;;;;25.73;5.43;;;-3.90;99.90;;;;;;4991551;28;20034;-77
2022/01/19 01:45:27;;;;;;;16.05;6.25;;;-4.00;99.90;;;;;;4991603;28;20022;-78
2022/01/19 01:48:03;;;;;;;12.73;5.28;;;-4.00;99.90;;;;;;4991308;28;20484;-76
2022/01/19 01:53:26;;;;;;;9.57;4.28;;;-3.90;99.90;;;;;;4992819;28;19912;-76
2022/01/19 01:56:03;;;;;;;11.27;3.90;;;-4.00;99.90;;;;;;4992629;28;20105;-76
2022/01/19 01:58:32;;;;;;;8.30;3.33;;;-4.00;99.90;;;;;;4992576;28;20081;-75
2022/01/19 02:00:58;;;;;;;11.73;4.03;;;-4.00;99.90;;;;;;4992729;28;20041;-76
2022/01/19 02:03:24;;;;;;;8.48;4.50;;;-4.10;99.90;;;;;;4975284;28;20036;-76
2022/01/19 02:08:25;;;;;;;9.85;5.82;;;-4.10;99.90;;;;;;4992252;28;20034;-76
2022/01/19 02:24:13;;;;;;;13.07;5.78;;;-4.10;99.90;;;;;;4992260;28;20042;-75
2022/01/19 02:27:06;;;;;;;15.05;5.47;;;-4.10;99.90;;;;;;4992447;28;20026;-75
2022/01/19 02:40:16;;;;;;;16.02;8.23;;;-4.20;99.90;;;;;;4975067;28;20124;-75
2022/01/19 02:50:37;;;;;;;14.52;6.55;;;-4.20;99.90;;;;;;4999622;28;20030;-76
2022/01/19 02:53:03;;;;;;;15.27;6.65;;;-4.20;99.90;;;;;;4999861;28;20026;-77
2022/01/19 02:55:31;;;;;;;15.80;6.03;;;-4.20;99.90;;;;;;4981974;28;20019;-75
2022/01/19 02:57:57;;;;;;;17.10;6.13;;;-4.20;99.90;;;;;;4996608;28;20038;-75
2022/01/19 03:08:48;;;;;;;18.45;7.07;;;-4.30;99.90;;;;;;4995948;28;20093;-77
2022/01/19 03:11:18;;;;;;;17.45;7.63;;;-4.30;99.90;;;;;;4978096;28;20428;-77
2022/01/19 03:13:45;;;;;;;17.85;7.75;;;-4.30;99.90;;;;;;4994418;28;20037;-79
2022/01/19 03:16:11;;;;;;;14.10;5.50;;;-4.30;99.90;;;;;;4995502;28;20030;-75
2022/01/19 03:18:38;;;;;;;13.50;6.95;;;-4.30;99.90;;;;;;4994385;28;20026;-75
2022/01/19 03:21:05;;;;;;;16.65;6.18;;;-4.30;99.90;;;;;;4995233;28;20544;-77
2022/01/19 03:23:31;;;;;;;12.60;5.43;;;-4.30;99.90;;;;;;4995539;28;20034;-75
2022/01/19 03:25:58;;;;;;;19.65;7.55;;;-4.30;99.90;;;;;;4993931;28;20088;-75
2022/01/19 03:28:23;;;;;;;19.90;6.95;;;-4.30;99.90;;;;;;4993908;28;20474;-77
2022/01/19 03:30:49;;;;;;;11.35;6.40;;;-4.40;99.90;;;;;;4995342;28;20115;-75
2022/01/19 03:33:16;;;;;;;16.17;5.63;;;-4.40;99.90;;;;;;4995091;28;20073;-76
2022/01/19 03:35:43;;;;;;;11.98;6.50;;;-4.30;99.90;;;;;;4995048;28;20030;-75
2022/01/19 03:38:12;;;;;;;19.52;7.05;;;-4.30;99.90;;;;;;4994946;28;20518;-76
2022/01/19 03:40:38;;;;;;;14.15;7.10;;;-4.30;99.90;;;;;;4993635;28;20405;-77
2022/01/19 03:43:07;;;;;;;13.65;6.65;;;-4.40;99.90;;;;;;4993744;28;20023;-75
2022/01/19 03:45:34;;;;;;;21.73;8.00;;;-4.30;99.90;;;;;;4994981;28;20409;-77
2022/01/19 03:50:33;;;;;;;17.33;6.30;;;-4.30;99.90;;;;;;4993843;28;20018;-76
2022/01/19 03:52:59;;;;;;;13.45;6.93;;;-4.40;99.90;;;;;;4977535;28;20094;-75
2022/01/19 03:55:25;;;;;;;18.23;7.20;;;-4.40;99.90;;;;;;4993536;28;20054;-77
2022/01/19 03:57:50;;;;;;;17.60;7.55;;;-4.50;99.90;;;;;;4993548;28;20359;-75
2022/01/19 04:00:18;;;;;;;12.95;7.38;;;-4.50;99.90;;;;;;4994780;28;20462;-77
2022/01/19 04:02:44;;;;;;;11.90;6.40;;;-4.50;99.90;;;;;;4977277;28;20034;-77
2022/01/19 04:06:01;;;;;;;11.23;5.68;;;-4.50;99.90;;;;;;4977214;28;20026;-76
2022/01/19 04:07:56;;;;;;;16.73;6.63;;;-4.50;99.90;;;;;;4986517;28;20046;-76
2022/01/19 04:10:21;;;;;;;17.13;8.27;;;-4.50;99.90;;;;;;4994484;28;20149;-75
2022/01/19 04:12:55;;;;;;;14.57;7.78;;;-4.50;99.90;;;;;;4994304;28;20380;-78
2022/01/19 04:15:21;;;;;;;15.65;6.85;;;-4.50;99.90;;;;;;4977539;28;20031;-76
2022/01/19 04:17:53;;;;;;;14.63;6.00;;;-4.50;99.90;;;;;;4993732;28;20096;-76
2022/01/19 04:20:24;;;;;;;13.10;6.05;;;-4.50;99.90;;;;;;4994570;28;20077;-75
2022/01/19 04:22:50;;;;;;;14.02;6.47;;;-4.50;99.90;;;;;;4976678;28;20089;-74
2022/01/19 04:25:15;;;;;;;14.35;6.32;;;-4.50;99.90;;;;;;4993354;28;20022;-77
2022/01/19 04:27:43;;;;;;;15.95;6.75;;;-4.50;99.90;;;;;;4994572;28;20533;-76
2022/01/19 04:30:12;;;;;;;14.15;6.30;;;-4.50;99.90;;;;;;4993028;28;20022;-75
2022/01/19 04:32:51;;;;;;;23.13;6.03;;;-4.60;99.90;;;;;;4994122;28;20488;-74
2022/01/19 04:35:23;;;;;;;14.55;6.40;;;-4.50;99.90;;;;;;4992812;28;20040;-76
2022/01/19 04:54:08;;;;;;;13.18;6.10;;;-4.60;99.90;;;;;;4993770;28;20058;-76
2022/01/19 05:05:04;;;;;;;15.68;8.57;;;-4.60;99.90;;;;;;4993618;28;20033;-75
2022/01/19 05:07:39;;;;;;;13.75;7.18;;;-4.70;99.90;;;;;;4993617;28;20034;-75
2022/01/19 05:15:22;;;;;;;11.95;6.40;;;-4.70;99.90;;;;;;4993576;28;20041;-75
2022/01/19 05:17:47;;;;;;;156.48;39.33;;;-4.70;99.90;;;;;;4975684;28;20022;-76
2022/01/19 05:20:13;;;;;;;36.13;12.02;;;-4.80;99.90;;;;;;4993298;28;20459;-78
2022/01/19 05:22:39;;;;;;;22.73;8.93;;;-4.80;99.90;;;;;;4975830;28;20034;-75
2022/01/19 05:25:05;;;;;;;22.50;9.75;;;-4.80;99.90;;;;;;4993345;28;20034;-75
2022/01/19 05:27:31;;;;;;;35.85;13.45;;;-4.80;99.90;;;;;;4991712;28;20039;-75
2022/01/19 05:29:56;;;;;;;27.52;11.10;;;-4.80;99.90;;;;;;4993021;28;20015;-78
2022/01/19 05:32:23;;;;;;;16.85;7.20;;;-4.90;99.90;;;;;;4993340;28;20026;-79
2022/01/19 05:34:48;;;;;;;30.05;12.23;;;-4.50;99.90;;;;;;4991868;28;20034;-78
2022/01/19 05:37:14;;;;;;;25.77;10.35;;;-4.20;99.90;;;;;;4993100;28;20030;-78
2022/01/19 05:39:40;;;;;;;22.50;11.45;;;-4.30;99.90;;;;;;4992905;28;20506;-77
2022/01/19 05:42:06;;;;;;;21.95;10.43;;;-4.40;99.90;;;;;;4991511;28;20096;-79
2022/01/19 05:44:32;;;;;;;21.17;10.80;;;-4.60;99.90;;;;;;4991609;28;20019;-76
2022/01/19 05:46:57;;;;;;;22.20;10.30;;;-4.70;99.90;;;;;;4992878;28;20099;-78
2022/01/19 05:49:23;;;;;;;22.98;11.38;;;-4.80;99.90;;;;;;4992790;28;20076;-80
2022/01/19 05:51:49;;;;;;;21.80;11.75;;;-4.80;99.90;;;;;;4992945;28;20084;-78
2022/01/19 05:54:17;;;;;;;16.88;9.52;;;-4.90;99.90;;;;;;4992656;28;20489;-79
2022/01/19 05:56:43;;;;;;;16.63;8.30;;;-4.90;99.90;;;;;;4975296;28;20023;-80
2022/01/19 05:59:09;;;;;;;16.20;8.50;;;-4.90;99.90;;;;;;4992641;28;20033;-78
2022/01/19 06:01:34;;;;;;;17.73;8.57;;;-4.90;99.90;;;;;;4992447;28;20042;-78
2022/01/19 06:04:00;;;;;;;17.42;8.77;;;-4.90;99.90;;;;;;4991860;28;20050;-78
2022/01/19 06:06:26;;;;;;;13.63;8.05;;;-5.00;99.90;;;;;;4975512;28;20126;-78
2022/01/19 06:09:00;;;;;;;17.98;8.52;;;-5.00;99.90;;;;;;4993034;28;20022;-79
2022/01/19 06:11:26;;;;;;;20.03;7.47;;;-5.10;99.90;;;;;;4992893;28;20030;-79
2022/01/19 06:13:52;;;;;;;15.95;6.80;;;-5.10;99.90;;;;;;4993622;28;20113;-77
2022/01/19 06:16:18;;;;;;;17.38;7.20;;;-5.10;99.90;;;;;;4994896;28;20133;-78
2022/01/19 06:18:43;;;;;;;15.02;7.55;;;-5.10;99.90;;;;;;4995294;28;20084;-79
2022/01/19 06:21:10;;;;;;;16.38;7.13;;;-5.10;99.90;;;;;;4994747;28;20038;-79
2022/01/19 06:23:37;;;;;;;14.18;8.15;;;-5.10;99.90;;;;;;4997561;28;20026;-80
2022/01/19 06:26:04;;;;;;;18.17;8.77;;;-5.10;99.90;;;;;;4996931;28;20026;-79
2022/01/19 06:28:29;;;;;;;15.48;7.25;;;-5.20;99.90;;;;;;4996769;28;20114;-78
2022/01/19 06:30:55;;;;;;;17.63;8.50;;;-5.20;99.90;;;;;;4996874;28;20101;-79
2022/01/19 06:33:21;;;;;;;16.90;8.32;;;-5.10;99.90;;;;;;4995542;28;20508;-80
2022/01/19 06:35:47;;;;;;;20.63;9.25;;;-5.20;99.90;;;;;;4979237;28;20033;-79
2022/01/19 06:38:12;;;;;;;21.10;8.55;;;-5.20;99.90;;;;;;4978919;28;20022;-79
2022/01/19 06:40:38;;;;;;;19.17;9.18;;;-5.20;99.90;;;;;;4991681;28;20170;-79
2022/01/19 06:43:04;;;;;;;17.30;8.27;;;-5.20;99.90;;;;;;4992144;28;20074;-79
2022/01/19 06:45:31;;;;;;;15.98;8.77;;;-5.20;99.90;;;;;;4991944;28;20050;-79
2022/01/19 06:47:57;;;;;;;18.77;9.32;;;-5.10;99.90;;;;;;4991912;28;20360;-79
2022/01/19 06:50:23;;;;;;;24.58;10.77;;;-5.10;99.90;;;;;;4991953;28;20049;-80
2022/01/19 06:52:49;;;;;;;16.73;9.18;;;-5.10;99.90;;;;;;4992121;28;20051;-80
2022/01/19 06:55:16;;;;;;;14.75;9.18;;;-5.20;99.90;;;;;;4976949;28;20031;-80
2022/01/19 06:57:44;;;;;;;23.02;10.25;;;-5.10;99.90;;;;;;4975982;28;20023;-79
2022/01/19 07:00:11;;;;;;;17.45;9.70;;;-5.10;99.90;;;;;;4992085;28;20114;-80
2022/01/19 07:02:37;;;;;;;19.85;10.80;;;-5.10;99.90;;;;;;4975300;28;20466;-79
2022/01/19 07:05:04;;;;;;;23.67;11.63;;;-5.00;99.90;;;;;;4992006;28;20114;-79
2022/01/19 07:07:30;;;;;;;26.65;12.65;;;-5.10;99.90;;;;;;4976604;28;20038;-80
2022/01/19 07:09:56;;;;;;;23.13;11.82;;;-5.10;99.90;;;;;;4976819;28;20027;-79
2022/01/19 07:12:22;;;;;;;23.63;12.55;;;-5.00;99.90;;;;;;4991774;28;20392;-79
2022/01/19 07:14:48;;;;;;;35.85;13.43;;;-5.00;99.90;;;;;;4991392;28;20027;-80
2022/01/19 07:17:13;;;;;;;34.58;14.48;;;-5.00;99.90;;;;;;4975155;28;20427;-80
2022/01/19 07:19:39;;;;;;;26.85;16.08;;;-5.00;99.90;;;;;;4976514;28;20030;-79
2022/01/19 07:22:05;;;;;;;29.30;14.82;;;-4.90;99.90;;;;;;4991275;28;20035;-79
2022/01/19 07:24:32;;;;;;;34.08;15.30;;;-4.90;99.90;;;;;;4991105;28;20081;-80
2022/01/19 07:26:58;;;;;;;28.40;13.13;;;-4.80;99.90;;;;;;4991264;28;20080;-79
2022/01/19 07:29:24;;;;;;;30.63;14.05;;;-4.70;99.90;;;;;;4991342;28;20030;-80
2022/01/19 07:31:51;;;;;;;30.73;14.20;;;-4.70;99.90;;;;;;4976906;28;20026;-78
2022/01/19 07:34:17;;;;;;;28.42;13.65;;;-4.60;99.90;;;;;;4976839;28;20047;-79
2022/01/19 07:36:42;;;;;;;40.05;17.35;;;-4.50;99.90;;;;;;4977519;28;20497;-79
2022/01/19 07:39:09;;;;;;;36.35;17.95;;;-4.40;99.90;;;;;;4980724;28;20042;-80
2022/01/19 07:41:34;;;;;;;35.40;15.65;;;-4.30;99.90;;;;;;4995979;28;20065;-80
2022/01/19 07:44:01;;;;;;;32.53;14.68;;;-4.20;99.90;;;;;;4996105;28;20478;-80
2022/01/19 07:46:26;;;;;;;25.10;13.10;;;-4.20;99.90;;;;;;4995703;28;20045;-80
2022/01/19 07:48:53;;;;;;;22.63;12.32;;;-4.10;99.90;;;;;;4995542;28;20474;-81
2022/01/19 07:51:18;;;;;;;20.70;12.18;;;-4.10;99.90;;;;;;4996920;28;20094;-81
2022/01/19 07:53:44;;;;;;;20.38;10.77;;;-4.00;99.90;;;;;;5000557;28;20050;-86
2022/01/19 07:56:10;;;;;;;23.95;12.32;;;-3.90;99.90;;;;;;4998906;28;20026;-81
2022/01/19 07:58:35;;;;;;;24.85;11.57;;;-3.90;99.90;;;;;;4979324;28;20030;-81
2022/01/19 08:01:01;;;;;;;27.42;12.55;;;-3.80;99.90;;;;;;4979152;28;20034;-80
2022/01/19 08:03:27;;;;;;;25.90;10.27;;;-3.80;99.90;;;;;;4996262;28;20545;-83
2022/01/19 08:05:52;;;;;;;29.35;9.35;;;-3.70;99.90;;;;;;4996053;28;20026;-81
2022/01/19 08:08:18;;;;;;;20.40;8.73;;;-3.50;99.90;;;;;;4995551;28;20027;-81
2022/01/19 08:10:45;;;;;;;26.45;10.30;;;-3.50;99.90;;;;;;4979445;28;20030;-84
2022/01/19 08:13:14;;;;;;;28.48;12.98;;;-3.50;99.90;;;;;;4995442;28;20026;-81
2022/01/19 08:15:39;;;;;;;30.20;11.98;;;-3.40;99.90;;;;;;4995397;28;20073;-81
2022/01/19 08:18:05;;;;;;;32.72;14.85;;;-3.30;99.90;;;;;;4995850;28;20022;-83
2022/01/19 08:20:31;;;;;;;32.97;14.63;;;-3.30;99.90;;;;;;4996223;28;20056;-81
2022/01/19 08:22:56;;;;;;;31.90;13.55;;;-3.20;99.90;;;;;;4994568;28;20034;-80
2022/01/19 08:25:22;;;;;;;21.00;12.05;;;-3.10;99.90;;;;;;5003408;28;20018;-83
2022/01/19 08:27:48;;;;;;;26.05;11.70;;;-3.00;99.90;;;;;;4989201;28;20050;-80
2022/01/19 08:30:15;;;;;;;19.90;10.95;;;-2.90;99.90;;;;;;5005152;28;20478;-83
2022/01/19 08:32:41;;;;;;;19.55;10.60;;;-2.90;99.90;;;;;;4997209;28;20110;-82
2022/01/19 08:35:08;;;;;;;19.27;9.30;;;-2.80;99.90;;;;;;4994676;28;20019;-82
2022/01/19 08:37:34;;;;;;;20.08;10.23;;;-2.70;99.90;;;;;;4994675;28;20022;-79
2022/01/19 08:40:00;;;;;;;23.50;10.82;;;-2.60;99.90;;;;;;4996181;28;20057;-81
2022/01/19 08:42:26;;;;;;;24.17;10.45;;;-2.50;99.90;;;;;;4994520;28;20367;-79
2022/01/19 08:44:53;;;;;;;27.33;10.30;;;-2.30;99.90;;;;;;4993822;28;20054;-79
2022/01/19 08:47:19;;;;;;;27.73;12.25;;;-2.30;99.90;;;;;;4993615;28;20064;-81
2022/01/19 08:49:45;;;;;;;21.92;12.00;;;-2.20;99.90;;;;;;4994956;28;20772;-80
2022/01/19 08:52:11;;;;;;;22.08;11.07;;;-2.10;99.90;;;;;;4993913;28;20031;-80
2022/01/19 08:54:37;;;;;;;21.85;10.18;;;-2.00;99.90;;;;;;4993668;28;20073;-80
2022/01/19 08:57:04;;;;;;;25.65;11.95;;;-1.80;99.90;;;;;;4993827;28;20033;-79
2022/01/19 08:59:30;;;;;;;22.52;11.10;;;-1.80;99.90;;;;;;4993676;28;20018;-79
2022/01/19 09:01:57;;;;;;;26.23;12.77;;;-1.70;99.90;;;;;;4993771;28;20517;-80
2022/01/19 09:04:23;;;;;;;28.10;11.45;;;-1.60;99.90;;;;;;4995142;28;20014;-80
2022/01/19 09:06:49;;;;;;;25.90;11.23;;;-1.60;99.90;;;;;;4995134;28;20045;-82
2022/01/19 09:09:15;;;;;;;25.98;9.55;;;-1.40;99.90;;;;;;4994081;28;20027;-81
2022/01/19 09:11:42;;;;;;;24.50;10.18;;;-1.30;99.90;;;;;;4994146;28;20382;-82
2022/01/19 09:14:10;;;;;;;18.17;9.35;;;-1.20;99.90;;;;;;4993778;28;20026;-80
2022/01/19 09:16:36;;;;;;;21.33;8.60;;;-1.20;99.90;;;;;;4993673;28;20081;-79
2022/01/19 09:19:03;;;;;;;18.80;9.68;;;-1.10;99.90;;;;;;4994376;28;20033;-81
2022/01/19 09:21:30;;;;;;;16.95;8.95;;;-1.00;99.90;;;;;;4992621;28;20414;-80
2022/01/19 09:23:55;;;;;;;14.95;9.65;;;-0.50;99.90;;;;;;4995112;28;20026;-85
2022/01/19 09:26:21;;;;;;;16.70;9.55;;;-0.70;99.90;;;;;;4995286;28;20442;-83
2022/01/19 09:28:47;;;;;;;22.85;14.18;;;-0.70;99.90;;;;;;4996687;28;20037;-85
2022/01/19 09:31:16;;;;;;;24.15;10.85;;;-0.60;99.90;;;;;;5001509;28;20037;-84
2022/01/19 09:33:43;;;;;;;22.08;9.88;;;-0.50;99.90;;;;;;5000798;28;20022;-80
2022/01/19 09:36:29;;;;;;;25.20;12.18;;;0.00;99.90;;;;;;4996132;28;20049;-84
2022/01/19 09:38:56;;;;;;;21.88;11.27;;;-0.20;99.90;;;;;;4995277;28;20027;-84
2022/01/19 09:41:21;;;;;;;33.50;10.43;;;0.20;99.90;;;;;;4993144;28;20038;-79
2022/01/19 09:43:47;;;;;;;23.67;11.65;;;0.00;99.90;;;;;;4996771;28;20037;-79
2022/01/19 09:46:13;;;;;;;23.10;11.85;;;0.10;99.90;;;;;;5005947;28;20058;-81
2022/01/19 09:48:40;;;;;;;20.40;11.90;;;0.60;99.90;;;;;;4981842;28;20378;-83
2022/01/19 09:51:06;;;;;;;21.88;12.80;;;0.30;99.90;;;;;;4997149;28;20076;-84
2022/01/19 09:53:32;;;;;;;23.08;10.23;;;0.30;99.90;;;;;;4995798;28;20029;-84
2022/01/19 09:55:58;;;;;;;27.17;11.23;;;0.40;99.90;;;;;;4994470;28;20030;-85
2022/01/19 09:58:24;;;;;;;21.73;10.15;;;0.60;99.90;;;;;;4995521;28;20087;-83
2022/01/19 10:00:51;;;;;;;17.90;9.07;;;0.70;99.90;;;;;;4995419;28;20107;-85
2022/01/19 10:03:16;;;;;;;23.77;9.38;;;0.90;99.90;;;;;;4994354;28;20478;-79
2022/01/19 10:06:03;;;;;;;19.33;11.02;;;0.90;99.90;;;;;;4975892;28;20176;-79
2022/01/19 10:08:33;;;;;;;19.30;9.95;;;1.00;99.90;;;;;;4993089;28;20026;-79
2022/01/19 10:11:13;;;;;;;25.25;11.07;;;1.00;99.90;;;;;;4991724;28;20077;-78
2022/01/19 10:17:01;;;;;;;24.05;10.48;;;1.30;99.90;;;;;;4993184;28;20042;-79
2022/01/19 10:19:45;;;;;;;23.48;11.45;;;1.30;99.90;;;;;;4992571;28;20030;-76
2022/01/19 10:22:25;;;;;;;26.35;11.00;;;1.40;99.90;;;;;;4991948;28;20038;-78
2022/01/19 10:25:04;;;;;;;21.30;10.82;;;1.50;99.90;;;;;;4991713;28;20029;-79
2022/01/19 10:27:38;;;;;;;21.48;11.52;;;1.60;99.90;;;;;;4994937;28;20037;-82
2022/01/19 10:30:04;;;;;;;26.15;11.65;;;1.70;99.90;;;;;;4978193;28;20109;-84
2022/01/19 10:32:46;;;;;;;21.38;11.57;;;1.70;99.90;;;;;;4978161;28;20069;-82
2022/01/19 10:35:26;;;;;;;25.33;10.70;;;1.70;99.90;;;;;;4993562;28;20023;-81
2022/01/19 10:38:15;;;;;;;22.23;11.98;;;1.80;99.90;;;;;;4993495;28;20046;-83
2022/01/19 10:41:06;;;;;;;24.08;12.00;;;1.90;99.90;;;;;;4992548;28;20853;-79
2022/01/19 10:43:36;;;;;;;20.10;11.88;;;2.00;99.90;;;;;;4986413;28;20118;-80
2022/01/19 10:46:28;;;;;;;18.00;10.70;;;2.00;99.90;;;;;;4976352;28;20037;-80
2022/01/19 10:49:12;;;;;;;13.48;6.95;;;2.10;99.90;;;;;;4994733;28;20492;-82
2022/01/19 10:51:46;;;;;;;23.52;9.88;;;2.50;99.90;;;;;;4992748;28;20054;-79
2022/01/19 10:54:11;;;;;;;20.98;9.32;;;2.60;99.90;;;;;;4992559;28;20122;-80
2022/01/19 10:56:38;;;;;;;25.00;12.25;;;2.60;99.90;;;;;;4976649;28;20061;-81
2022/01/19 10:59:08;;;;;;;20.23;11.02;;;2.60;99.90;;;;;;4994009;28;20041;-73
2022/01/19 11:01:41;;;;;;;24.25;10.60;;;2.60;99.90;;;;;;4996010;28;20027;-75
2022/01/19 11:04:33;;;;;;;30.98;11.60;;;2.60;99.90;;;;;;4978467;28;20024;-73
2022/01/19 11:07:08;;;;;;;26.35;11.23;;;2.70;99.90;;;;;;4996033;28;20110;-73
2022/01/19 11:09:46;;;;;;;20.90;9.45;;;2.70;99.90;;;;;;4995972;28;20019;-73
2022/01/19 11:12:18;;;;;;;23.33;11.63;;;2.70;99.90;;;;;;4995895;28;20050;-76
2022/01/19 11:14:45;;;;;;;18.85;9.30;;;2.80;99.90;;;;;;4993875;28;20044;-75
2022/01/19 11:17:11;;;;;;;21.67;10.40;;;3.00;99.90;;;;;;4995433;28;20022;-75
2022/01/19 11:19:39;;;;;;;20.10;10.38;;;3.00;99.90;;;;;;4995164;28;20437;-75
2022/01/19 11:22:26;;;;;;;23.85;10.77;;;3.00;99.90;;;;;;4977781;28;20486;-77
2022/01/19 11:25:09;;;;;;;17.25;9.73;;;3.10;99.90;;;;;;4977726;28;20482;-73
2022/01/19 11:27:41;;;;;;;20.05;9.63;;;3.00;99.90;;;;;;4995018;28;20343;-74
2022/01/19 11:30:18;;;;;;;19.58;9.35;;;3.10;99.90;;;;;;4995223;28;20026;-73
2022/01/19 11:33:05;;;;;;;17.50;8.82;;;3.10;99.90;;;;;;4997940;28;20034;-76
2022/01/19 11:35:35;;;;;;;17.67;9.18;;;3.10;99.90;;;;;;4995400;28;20084;-74
2022/01/19 11:38:21;;;;;;;26.92;8.95;;;3.20;99.90;;;;;;4995089;28;20026;-73
2022/01/19 11:40:47;;;;;;;21.35;10.02;;;3.20;99.90;;;;;;4994840;28;20054;-75
2022/01/19 11:43:25;;;;;;;20.38;9.63;;;3.20;99.90;;;;;;4994561;28;20088;-73
2022/01/19 11:45:52;;;;;;;22.00;9.60;;;3.20;99.90;;;;;;4994977;28;20030;-77
2022/01/19 11:48:28;;;;;;;18.33;9.80;;;3.30;99.90;;;;;;4995041;28;20487;-75
2022/01/19 11:51:16;;;;;;;19.27;10.02;;;3.40;99.90;;;;;;4994674;28;20022;-73
2022/01/19 11:54:06;;;;;;;17.52;9.30;;;3.40;99.90;;;;;;4994994;28;20401;-73
2022/01/19 11:56:53;;;;;;;18.13;9.43;;;3.40;99.90;;;;;;4986163;28;20093;-73
2022/01/19 11:59:18;;;;;;;22.33;15.02;;;3.40;99.90;;;;;;4993588;28;20059;-74
2022/01/19 12:01:44;;;;;;;19.92;11.20;;;3.50;99.90;;;;;;4994657;28;20150;-73
2022/01/19 12:04:22;;;;;;;16.52;10.35;;;3.50;99.90;;;;;;4994607;28;20041;-74
2022/01/19 12:06:48;;;;;;;22.92;11.52;;;3.50;99.90;;;;;;4994445;28;20030;-75
2022/01/19 12:09:15;;;;;;;22.23;11.45;;;3.60;99.90;;;;;;4993040;28;20026;-74
2022/01/19 12:11:50;;;;;;;17.45;9.15;;;3.70;99.90;;;;;;4976219;28;20165;-75
2022/01/19 12:17:03;;;;;;;16.58;9.48;;;3.80;99.90;;;;;;4994306;28;20374;-73
2022/01/19 12:19:30;;;;;;;;;;;3.80;99.90;;;;;;4995069;28;20014;-74
2022/01/19 12:22:05;;;;;;;17.42;9.52;;;3.90;99.90;;;;;;4976526;28;19925;-74
2022/01/19 12:24:43;;;;;;;21.73;9.70;;;3.90;99.60;;;;;;4994331;28;20038;-75
2022/01/19 12:27:15;;;;;;;18.02;11.50;;;3.80;99.50;;;;;;4994266;28;20521;-74
2022/01/19 12:29:40;;;;;;;24.98;10.98;;;3.80;99.50;;;;;;4994364;28;20042;-74
2022/01/19 12:32:15;;;;;;;21.17;12.30;;;3.90;99.70;;;;;;4994568;28;20794;-74
2022/01/19 12:34:45;;;;;;;21.65;11.15;;;3.90;99.90;;;;;;4977262;28;20033;-74
2022/01/19 12:37:13;;;;;;;17.95;9.77;;;4.00;99.60;;;;;;4994574;28;20015;-75
2022/01/19 12:39:44;;;;;;;23.17;10.88;;;4.00;99.30;;;;;;4989574;28;20058;-74
2022/01/19 12:42:23;;;;;;;17.17;10.18;;;4.00;99.10;;;;;;4974686;28;20038;-73
2022/01/19 12:45:16;;;;;;;15.85;10.82;;;4.10;99.40;;;;;;4974780;28;20026;-74
2022/01/19 12:47:43;;;;;;;22.27;10.73;;;4.00;99.40;;;;;;4970324;28;20035;-73
2022/01/19 12:50:08;;;;;;;21.00;11.75;;;4.10;99.00;;;;;;4972782;28;20403;-74
2022/01/19 12:52:41;;;;;;;19.05;10.38;;;4.00;99.00;;;;;;4974478;28;20033;-73
2022/01/19 12:55:17;;;;;;;28.02;14.95;;;4.00;99.10;;;;;;4974628;28;20023;-74
2022/01/19 12:57:42;;;;;;;;;;;4.10;99.20;;;;;;4974907;28;20029;-73
2022/01/19 13:00:12;;;;;;;19.90;11.83;;;4.10;99.10;;;;;;4974488;28;19910;-73
2022/01/19 13:02:37;;;;;;;21.33;10.88;;;4.10;99.00;;;;;;4974468;28;20035;-74
2022/01/19 13:05:14;;;;;;;17.98;10.63;;;4.10;98.90;;;;;;4974650;28;20049;-75
2022/01/19 13:07:52;;;;;;;18.67;10.63;;;4.10;98.70;;;;;;4974185;28;20031;-75
2022/01/19 13:11:05;;;;;;;17.60;10.45;;;4.10;98.60;;;;;;4989647;28;20075;-75
2022/01/19 13:13:27;;;;;;;21.92;10.45;;;4.00;98.60;;;;;;4973523;28;20174;-75
2022/01/19 13:15:59;;;;;;;19.55;11.15;;;4.00;98.70;;;;;;4974988;28;20022;-74
2022/01/19 13:18:37;;;;;;;22.25;10.50;;;4.10;98.90;;;;;;4974195;28;20165;-73
2022/01/19 13:21:04;;;;;;;24.85;12.73;;;4.10;98.90;;;;;;4974093;28;20058;-74
2022/01/19 13:23:36;;;;;;;20.77;10.68;;;4.10;98.50;;;;;;4974125;28;20034;-75
2022/01/19 13:26:12;;;;;;;21.48;10.05;;;4.00;98.60;;;;;;4974016;28;20483;-74
2022/01/19 13:28:38;;;;;;;20.08;10.60;;;4.00;98.50;;;;;;4972751;28;20113;-73
2022/01/19 13:31:24;;;;;;;18.92;9.95;;;4.00;98.50;;;;;;4972635;28;20589;-75
2022/01/19 13:33:59;;;;;;;18.58;10.05;;;4.00;98.50;;;;;;4973844;28;20034;-75
2022/01/19 13:36:35;;;;;;;17.95;9.23;;;4.00;98.80;;;;;;4973965;28;20042;-73
2022/01/19 13:39:04;;;;;;;19.85;9.82;;;3.90;98.80;;;;;;4976389;28;20027;-74
2022/01/19 13:41:29;;;;;;;19.13;10.45;;;3.90;98.80;;;;;;4993075;28;20034;-73
2022/01/19 13:44:08;;;;;;;17.67;9.82;;;3.90;98.80;;;;;;4993136;28;20022;-74
2022/01/19 13:46:38;;;;;;;20.88;10.02;;;3.90;98.70;;;;;;4992956;28;20081;-74
2022/01/19 13:49:05;;;;;;;21.20;11.30;;;3.90;98.80;;;;;;4992927;28;20030;-74
2022/01/19 13:51:33;;;;;;;17.10;10.15;;;3.80;98.80;;;;;;4993064;28;20031;-73
2022/01/19 13:54:04;;;;;;;17.63;10.70;;;3.80;98.70;;;;;;4991875;28;20022;-74
2022/01/19 13:56:36;;;;;;;16.23;9.20;;;3.80;98.80;;;;;;4990969;28;20022;-74
2022/01/19 13:59:13;;;;;;;20.65;10.95;;;3.80;98.90;;;;;;4975125;28;20390;-74
2022/01/19 14:02:00;;;;;;;15.73;10.40;;;3.80;98.90;;;;;;4992552;28;20042;-73
2022/01/19 14:04:29;;;;;;;20.52;12.25;;;3.70;99.00;;;;;;4993039;28;20021;-73
2022/01/19 14:07:06;;;;;;;19.92;12.00;;;3.70;99.10;;;;;;4991413;28;20030;-74
2022/01/19 14:09:34;;;;;;;18.98;10.60;;;3.70;99.30;;;;;;4992832;28;20564;-73
2022/01/19 14:12:08;;;;;;;17.40;9.93;;;3.70;99.30;;;;;;4991527;28;20026;-75
2022/01/19 14:14:36;;;;;;;19.55;11.13;;;3.60;99.30;;;;;;4991327;28;20023;-75